sensor_id;sensor_type;location;lat;lon;timestamp;P1;durP1;ratioP1;P2;durP2;ratioP2
71038;SDS011;58692;43.212;27.908;2023-06-26T00:01:14;15.33;;;9.27;;
71038;SDS011;58692;43.212;27.908;2023-06-26T00:03:39;13.98;;;9.35;;
71038;SDS011;58692;43.212;27.908;2023-06-26T00:06:04;15.43;;;9.47;;
71038;SDS011;58692;43.212;27.908;2023-06-26T00:08:30;19.10;;;9.90;;
71038;SDS011;58692;43.212;27.908;2023-06-26T00:10:56;19.90;;;9.90;;
71038;SDS011;58692;43.212;27.908;2023-06-26T00:13:22;14.83;;;9.23;;
71038;SDS011;58692;43.212;27.908;2023-06-26T00:15:48;16.20;;;9.75;;
71038;SDS011;58692;43.212;27.908;2023-06-26T00:18:15;16.75;;;10.15;;
71038;SDS011;58692;43.212;27.908;2023-06-26T00:20:40;17.47;;;10.67;;
71038;SDS011;58692;43.212;27.908;2023-06-26T00:23:06;17.15;;;10.00;;
71038;SDS011;58692;43.212;27.908;2023-06-26T00:25:32;16.63;;;9.60;;
71038;SDS011;58692;43.212;27.908;2023-06-26T00:27:58;15.17;;;9.57;;
71038;SDS011;58692;43.212;27.908;2023-06-26T00:30:24;14.98;;;10.05;;
71038;SDS011;58692;43.212;27.908;2023-06-26T00:32:49;17.43;;;10.90;;
71038;SDS011;58692;43.212;27.908;2023-06-26T00:35:15;16.90;;;10.13;;
71038;SDS011;58692;43.212;27.908;2023-06-26T00:37:41;16.83;;;10.37;;
71038;SDS011;58692;43.212;27.908;2023-06-26T00:40:06;17.25;;;10.18;;
71038;SDS011;58692;43.212;27.908;2023-06-26T00:42:32;17.38;;;10.57;;
71038;SDS011;58692;43.212;27.908;2023-06-26T00:44:58;19.60;;;10.87;;
71038;SDS011;58692;43.212;27.908;2023-06-26T00:47:23;16.23;;;10.97;;
71038;SDS011;58692;43.212;27.908;2023-06-26T00:49:49;17.40;;;10.43;;
71038;SDS011;58692;43.212;27.908;2023-06-26T00:52:15;14.67;;;9.43;;
71038;SDS011;58692;43.212;27.908;2023-06-26T00:54:41;18.63;;;10.70;;
71038;SDS011;58692;43.212;27.908;2023-06-26T00:57:07;17.60;;;10.27;;
71038;SDS011;58692;43.212;27.908;2023-06-26T00:59:33;18.17;;;10.93;;
71038;SDS011;58692;43.212;27.908;2023-06-26T01:01:59;16.83;;;10.65;;
71038;SDS011;58692;43.212;27.908;2023-06-26T01:04:25;16.37;;;9.97;;
71038;SDS011;58692;43.212;27.908;2023-06-26T01:06:52;16.83;;;10.00;;
71038;SDS011;58692;43.212;27.908;2023-06-26T01:09:20;17.27;;;10.18;;
71038;SDS011;58692;43.212;27.908;2023-06-26T01:11:47;16.45;;;10.55;;
71038;SDS011;58692;43.212;27.908;2023-06-26T01:14:13;17.87;;;10.93;;
71038;SDS011;58692;43.212;27.908;2023-06-26T01:16:39;20.55;;;10.60;;
71038;SDS011;58692;43.212;27.908;2023-06-26T01:19:09;17.00;;;10.40;;
71038;SDS011;58692;43.212;27.908;2023-06-26T01:21:39;15.90;;;9.55;;
71038;SDS011;58692;43.212;27.908;2023-06-26T01:24:09;14.37;;;9.20;;
71038;SDS011;58692;43.212;27.908;2023-06-26T01:26:45;16.25;;;9.80;;
71038;SDS011;58692;43.212;27.908;2023-06-26T01:29:13;18.00;;;10.18;;
71038;SDS011;58692;43.212;27.908;2023-06-26T01:31:40;16.98;;;10.27;;
71038;SDS011;58692;43.212;27.908;2023-06-26T01:34:07;18.77;;;9.60;;
71038;SDS011;58692;43.212;27.908;2023-06-26T01:36:32;15.90;;;10.20;;
71038;SDS011;58692;43.212;27.908;2023-06-26T01:38:58;17.00;;;9.37;;
71038;SDS011;58692;43.212;27.908;2023-06-26T01:41:23;18.27;;;9.85;;
71038;SDS011;58692;43.212;27.908;2023-06-26T01:46:18;15.68;;;9.25;;
71038;SDS011;58692;43.212;27.908;2023-06-26T01:48:50;15.85;;;9.60;;
71038;SDS011;58692;43.212;27.908;2023-06-26T01:51:30;15.35;;;9.10;;
71038;SDS011;58692;43.212;27.908;2023-06-26T01:53:57;16.70;;;8.63;;
71038;SDS011;58692;43.212;27.908;2023-06-26T01:56:25;15.75;;;8.50;;
71038;SDS011;58692;43.212;27.908;2023-06-26T01:58:52;17.42;;;7.78;;
71038;SDS011;58692;43.212;27.908;2023-06-26T02:01:20;15.55;;;7.68;;
71038;SDS011;58692;43.212;27.908;2023-06-26T02:03:46;16.60;;;7.72;;
71038;SDS011;58692;43.212;27.908;2023-06-26T02:06:11;14.27;;;7.60;;
71038;SDS011;58692;43.212;27.908;2023-06-26T02:08:37;21.07;;;8.43;;
71038;SDS011;58692;43.212;27.908;2023-06-26T02:11:02;17.77;;;8.45;;
71038;SDS011;58692;43.212;27.908;2023-06-26T02:13:27;21.00;;;7.77;;
71038;SDS011;58692;43.212;27.908;2023-06-26T02:15:53;14.23;;;8.73;;
71038;SDS011;58692;43.212;27.908;2023-06-26T02:18:18;15.87;;;8.57;;
71038;SDS011;58692;43.212;27.908;2023-06-26T02:20:46;14.80;;;8.13;;
71038;SDS011;58692;43.212;27.908;2023-06-26T02:23:11;19.73;;;8.38;;
71038;SDS011;58692;43.212;27.908;2023-06-26T02:25:37;16.10;;;7.90;;
71038;SDS011;58692;43.212;27.908;2023-06-26T02:28:03;18.88;;;8.73;;
71038;SDS011;58692;43.212;27.908;2023-06-26T02:30:29;15.57;;;7.97;;
71038;SDS011;58692;43.212;27.908;2023-06-26T02:32:54;17.15;;;9.10;;
71038;SDS011;58692;43.212;27.908;2023-06-26T02:35:20;16.67;;;8.93;;
71038;SDS011;58692;43.212;27.908;2023-06-26T02:37:45;14.15;;;7.78;;
71038;SDS011;58692;43.212;27.908;2023-06-26T02:40:11;14.50;;;8.63;;
71038;SDS011;58692;43.212;27.908;2023-06-26T02:42:37;19.03;;;8.80;;
71038;SDS011;58692;43.212;27.908;2023-06-26T02:45:02;17.63;;;8.88;;
71038;SDS011;58692;43.212;27.908;2023-06-26T02:47:28;18.67;;;9.20;;
71038;SDS011;58692;43.212;27.908;2023-06-26T02:49:54;17.50;;;9.40;;
71038;SDS011;58692;43.212;27.908;2023-06-26T02:52:19;17.17;;;9.40;;
71038;SDS011;58692;43.212;27.908;2023-06-26T02:54:45;19.92;;;9.35;;
71038;SDS011;58692;43.212;27.908;2023-06-26T02:57:10;15.80;;;9.30;;
71038;SDS011;58692;43.212;27.908;2023-06-26T02:59:37;23.27;;;10.15;;
71038;SDS011;58692;43.212;27.908;2023-06-26T03:02:04;17.65;;;9.30;;
71038;SDS011;58692;43.212;27.908;2023-06-26T03:04:30;21.33;;;10.13;;
71038;SDS011;58692;43.212;27.908;2023-06-26T03:06:55;17.53;;;10.17;;
71038;SDS011;58692;43.212;27.908;2023-06-26T03:09:20;18.75;;;10.25;;
71038;SDS011;58692;43.212;27.908;2023-06-26T03:11:47;19.33;;;10.27;;
71038;SDS011;58692;43.212;27.908;2023-06-26T03:14:12;18.65;;;10.30;;
71038;SDS011;58692;43.212;27.908;2023-06-26T03:16:38;22.67;;;10.93;;
71038;SDS011;58692;43.212;27.908;2023-06-26T03:19:03;23.17;;;10.23;;
71038;SDS011;58692;43.212;27.908;2023-06-26T03:21:29;18.67;;;10.48;;
71038;SDS011;58692;43.212;27.908;2023-06-26T03:23:55;18.30;;;10.25;;
71038;SDS011;58692;43.212;27.908;2023-06-26T03:26:20;19.10;;;10.67;;
71038;SDS011;58692;43.212;27.908;2023-06-26T03:28:53;15.80;;;10.23;;
71038;SDS011;58692;43.212;27.908;2023-06-26T03:31:19;16.50;;;9.50;;
71038;SDS011;58692;43.212;27.908;2023-06-26T03:33:45;20.50;;;11.00;;
71038;SDS011;58692;43.212;27.908;2023-06-26T03:36:11;21.13;;;11.38;;
71038;SDS011;58692;43.212;27.908;2023-06-26T03:38:37;18.35;;;10.68;;
71038;SDS011;58692;43.212;27.908;2023-06-26T03:41:02;21.10;;;11.37;;
71038;SDS011;58692;43.212;27.908;2023-06-26T03:43:28;22.08;;;10.75;;
71038;SDS011;58692;43.212;27.908;2023-06-26T03:45:54;21.90;;;10.83;;
71038;SDS011;58692;43.212;27.908;2023-06-26T03:48:19;23.57;;;11.23;;
71038;SDS011;58692;43.212;27.908;2023-06-26T03:50:45;19.45;;;11.13;;
71038;SDS011;58692;43.212;27.908;2023-06-26T03:53:10;18.57;;;10.83;;
71038;SDS011;58692;43.212;27.908;2023-06-26T03:55:36;17.40;;;10.50;;
71038;SDS011;58692;43.212;27.908;2023-06-26T03:58:03;19.50;;;11.03;;
71038;SDS011;58692;43.212;27.908;2023-06-26T04:00:29;20.30;;;10.68;;
71038;SDS011;58692;43.212;27.908;2023-06-26T04:02:55;19.83;;;10.83;;
71038;SDS011;58692;43.212;27.908;2023-06-26T04:05:20;17.92;;;10.10;;
71038;SDS011;58692;43.212;27.908;2023-06-26T04:07:46;21.43;;;10.10;;
71038;SDS011;58692;43.212;27.908;2023-06-26T04:10:15;21.02;;;10.70;;
71038;SDS011;58692;43.212;27.908;2023-06-26T04:12:41;19.00;;;10.83;;
71038;SDS011;58692;43.212;27.908;2023-06-26T04:15:06;15.45;;;9.90;;
71038;SDS011;58692;43.212;27.908;2023-06-26T04:17:32;18.70;;;9.87;;
71038;SDS011;58692;43.212;27.908;2023-06-26T04:19:58;15.82;;;9.93;;
71038;SDS011;58692;43.212;27.908;2023-06-26T04:22:23;20.87;;;10.10;;
71038;SDS011;58692;43.212;27.908;2023-06-26T04:24:50;17.23;;;10.10;;
71038;SDS011;58692;43.212;27.908;2023-06-26T04:27:15;16.90;;;9.83;;
71038;SDS011;58692;43.212;27.908;2023-06-26T04:29:41;19.67;;;11.00;;
71038;SDS011;58692;43.212;27.908;2023-06-26T04:32:12;18.13;;;10.43;;
71038;SDS011;58692;43.212;27.908;2023-06-26T04:34:37;18.98;;;11.02;;
71038;SDS011;58692;43.212;27.908;2023-06-26T04:37:06;17.77;;;10.27;;
71038;SDS011;58692;43.212;27.908;2023-06-26T04:39:32;17.58;;;10.60;;
71038;SDS011;58692;43.212;27.908;2023-06-26T04:42:02;19.55;;;10.63;;
71038;SDS011;58692;43.212;27.908;2023-06-26T04:44:28;20.02;;;10.80;;
71038;SDS011;58692;43.212;27.908;2023-06-26T04:46:54;19.63;;;10.53;;
71038;SDS011;58692;43.212;27.908;2023-06-26T04:49:19;17.07;;;10.30;;
71038;SDS011;58692;43.212;27.908;2023-06-26T04:51:45;14.77;;;10.20;;
71038;SDS011;58692;43.212;27.908;2023-06-26T04:54:14;20.07;;;10.13;;
71038;SDS011;58692;43.212;27.908;2023-06-26T04:56:39;17.05;;;10.90;;
71038;SDS011;58692;43.212;27.908;2023-06-26T04:59:05;14.97;;;10.13;;
71038;SDS011;58692;43.212;27.908;2023-06-26T05:01:31;15.07;;;10.70;;
71038;SDS011;58692;43.212;27.908;2023-06-26T05:04:03;15.40;;;10.15;;
71038;SDS011;58692;43.212;27.908;2023-06-26T05:06:29;14.97;;;9.73;;
71038;SDS011;58692;43.212;27.908;2023-06-26T05:08:55;14.85;;;9.07;;
71038;SDS011;58692;43.212;27.908;2023-06-26T05:11:21;14.52;;;8.90;;
71038;SDS011;58692;43.212;27.908;2023-06-26T05:13:47;15.00;;;8.80;;
71038;SDS011;58692;43.212;27.908;2023-06-26T05:16:13;12.70;;;7.40;;
71038;SDS011;58692;43.212;27.908;2023-06-26T05:18:39;12.00;;;7.10;;
71038;SDS011;58692;43.212;27.908;2023-06-26T05:21:25;12.10;;;7.22;;
71038;SDS011;58692;43.212;27.908;2023-06-26T05:23:51;14.27;;;7.68;;
71038;SDS011;58692;43.212;27.908;2023-06-26T05:26:20;10.90;;;6.22;;
71038;SDS011;58692;43.212;27.908;2023-06-26T05:28:46;11.70;;;6.03;;
71038;SDS011;58692;43.212;27.908;2023-06-26T05:31:17;10.07;;;5.57;;
71038;SDS011;58692;43.212;27.908;2023-06-26T05:33:46;10.77;;;5.40;;
71038;SDS011;58692;43.212;27.908;2023-06-26T05:36:16;9.85;;;5.40;;
71038;SDS011;58692;43.212;27.908;2023-06-26T05:38:42;9.15;;;5.40;;
71038;SDS011;58692;43.212;27.908;2023-06-26T05:41:10;13.07;;;5.47;;
71038;SDS011;58692;43.212;27.908;2023-06-26T05:43:36;10.90;;;5.63;;
71038;SDS011;58692;43.212;27.908;2023-06-26T05:46:02;12.35;;;5.68;;
71038;SDS011;58692;43.212;27.908;2023-06-26T05:48:31;11.07;;;5.82;;
71038;SDS011;58692;43.212;27.908;2023-06-26T05:50:57;11.17;;;5.90;;
71038;SDS011;58692;43.212;27.908;2023-06-26T05:53:23;9.07;;;5.93;;
71038;SDS011;58692;43.212;27.908;2023-06-26T05:55:51;10.70;;;6.35;;
71038;SDS011;58692;43.212;27.908;2023-06-26T05:58:17;11.23;;;6.70;;
71038;SDS011;58692;43.212;27.908;2023-06-26T06:00:45;11.48;;;6.50;;
71038;SDS011;58692;43.212;27.908;2023-06-26T06:03:11;12.00;;;6.60;;
71038;SDS011;58692;43.212;27.908;2023-06-26T06:05:37;15.57;;;6.93;;
71038;SDS011;58692;43.212;27.908;2023-06-26T06:08:03;14.45;;;7.05;;
71038;SDS011;58692;43.212;27.908;2023-06-26T06:10:29;12.00;;;7.13;;
71038;SDS011;58692;43.212;27.908;2023-06-26T06:13:05;13.17;;;7.17;;
71038;SDS011;58692;43.212;27.908;2023-06-26T06:15:30;20.23;;;7.72;;
71038;SDS011;58692;43.212;27.908;2023-06-26T06:17:59;12.10;;;7.33;;
71038;SDS011;58692;43.212;27.908;2023-06-26T06:20:26;12.60;;;7.82;;
71038;SDS011;58692;43.212;27.908;2023-06-26T06:22:54;13.90;;;8.20;;
71038;SDS011;58692;43.212;27.908;2023-06-26T06:25:29;17.47;;;7.97;;
71038;SDS011;58692;43.212;27.908;2023-06-26T06:27:55;15.55;;;7.93;;
71038;SDS011;58692;43.212;27.908;2023-06-26T06:30:21;12.27;;;8.07;;
71038;SDS011;58692;43.212;27.908;2023-06-26T06:32:47;15.40;;;7.68;;
71038;SDS011;58692;43.212;27.908;2023-06-26T06:35:16;16.05;;;8.30;;
71038;SDS011;58692;43.212;27.908;2023-06-26T06:37:42;16.47;;;8.33;;
71038;SDS011;58692;43.212;27.908;2023-06-26T06:40:09;14.82;;;8.60;;
71038;SDS011;58692;43.212;27.908;2023-06-26T06:42:35;13.32;;;8.40;;
71038;SDS011;58692;43.212;27.908;2023-06-26T06:47:55;14.40;;;9.13;;
71038;SDS011;58692;43.212;27.908;2023-06-26T06:50:20;13.65;;;9.15;;
71038;SDS011;58692;43.212;27.908;2023-06-26T06:52:46;15.33;;;9.47;;
71038;SDS011;58692;43.212;27.908;2023-06-26T06:55:12;14.17;;;9.20;;
71038;SDS011;58692;43.212;27.908;2023-06-26T06:57:38;17.75;;;9.88;;
71038;SDS011;58692;43.212;27.908;2023-06-26T07:00:07;16.35;;;9.60;;
71038;SDS011;58692;43.212;27.908;2023-06-26T07:02:45;13.67;;;9.40;;
71038;SDS011;58692;43.212;27.908;2023-06-26T07:05:11;16.05;;;8.75;;
71038;SDS011;58692;43.212;27.908;2023-06-26T07:07:38;14.98;;;9.30;;
71038;SDS011;58692;43.212;27.908;2023-06-26T07:10:08;14.95;;;8.95;;
71038;SDS011;58692;43.212;27.908;2023-06-26T07:12:35;15.75;;;8.70;;
71038;SDS011;58692;43.212;27.908;2023-06-26T07:15:02;15.20;;;9.00;;
71038;SDS011;58692;43.212;27.908;2023-06-26T07:17:30;14.20;;;8.73;;
71038;SDS011;58692;43.212;27.908;2023-06-26T07:20:03;16.42;;;8.70;;
71038;SDS011;58692;43.212;27.908;2023-06-26T07:22:43;12.88;;;8.68;;
71038;SDS011;58692;43.212;27.908;2023-06-26T07:25:11;15.38;;;8.63;;
71038;SDS011;58692;43.212;27.908;2023-06-26T07:27:37;19.63;;;9.80;;
71038;SDS011;58692;43.212;27.908;2023-06-26T07:30:03;15.18;;;8.65;;
71038;SDS011;58692;43.212;27.908;2023-06-26T07:32:40;16.00;;;9.10;;
71038;SDS011;58692;43.212;27.908;2023-06-26T07:35:19;17.58;;;8.85;;
71038;SDS011;58692;43.212;27.908;2023-06-26T07:37:52;12.77;;;8.35;;
71038;SDS011;58692;43.212;27.908;2023-06-26T07:40:18;13.43;;;8.67;;
71038;SDS011;58692;43.212;27.908;2023-06-26T07:45:49;13.68;;;8.30;;
71038;SDS011;58692;43.212;27.908;2023-06-26T07:48:16;13.98;;;8.98;;
71038;SDS011;58692;43.212;27.908;2023-06-26T07:50:45;14.00;;;7.93;;
71038;SDS011;58692;43.212;27.908;2023-06-26T07:53:16;15.85;;;8.27;;
71038;SDS011;58692;43.212;27.908;2023-06-26T07:55:42;13.48;;;8.23;;
71038;SDS011;58692;43.212;27.908;2023-06-26T07:58:08;13.30;;;7.80;;
71038;SDS011;58692;43.212;27.908;2023-06-26T08:00:34;13.65;;;7.43;;
71038;SDS011;58692;43.212;27.908;2023-06-26T08:03:00;14.65;;;7.40;;
71038;SDS011;58692;43.212;27.908;2023-06-26T08:05:26;11.77;;;7.37;;
71038;SDS011;58692;43.212;27.908;2023-06-26T08:07:51;12.25;;;7.45;;
71038;SDS011;58692;43.212;27.908;2023-06-26T08:10:17;13.27;;;7.17;;
71038;SDS011;58692;43.212;27.908;2023-06-26T08:12:43;13.30;;;7.05;;
71038;SDS011;58692;43.212;27.908;2023-06-26T08:15:10;13.00;;;7.03;;
71038;SDS011;58692;43.212;27.908;2023-06-26T08:17:37;13.80;;;7.53;;
71038;SDS011;58692;43.212;27.908;2023-06-26T08:20:03;13.52;;;7.28;;
71038;SDS011;58692;43.212;27.908;2023-06-26T08:22:32;14.65;;;7.55;;
71038;SDS011;58692;43.212;27.908;2023-06-26T08:24:58;12.50;;;7.18;;
71038;SDS011;58692;43.212;27.908;2023-06-26T08:27:24;14.77;;;7.57;;
71038;SDS011;58692;43.212;27.908;2023-06-26T08:29:50;12.38;;;6.60;;
71038;SDS011;58692;43.212;27.908;2023-06-26T08:32:16;14.27;;;6.90;;
71038;SDS011;58692;43.212;27.908;2023-06-26T08:34:43;13.82;;;7.47;;
71038;SDS011;58692;43.212;27.908;2023-06-26T08:37:09;15.27;;;7.43;;
71038;SDS011;58692;43.212;27.908;2023-06-26T08:39:35;12.83;;;7.10;;
71038;SDS011;58692;43.212;27.908;2023-06-26T08:42:03;12.03;;;7.00;;
71038;SDS011;58692;43.212;27.908;2023-06-26T08:44:29;11.93;;;7.50;;
71038;SDS011;58692;43.212;27.908;2023-06-26T08:46:55;12.25;;;7.47;;
71038;SDS011;58692;43.212;27.908;2023-06-26T08:49:21;14.87;;;7.20;;
71038;SDS011;58692;43.212;27.908;2023-06-26T08:51:56;14.73;;;7.22;;
71038;SDS011;58692;43.212;27.908;2023-06-26T08:54:30;16.13;;;7.57;;
71038;SDS011;58692;43.212;27.908;2023-06-26T08:57:09;15.77;;;7.33;;
71038;SDS011;58692;43.212;27.908;2023-06-26T08:59:35;17.60;;;7.60;;
71038;SDS011;58692;43.212;27.908;2023-06-26T09:02:01;14.82;;;7.05;;
71038;SDS011;58692;43.212;27.908;2023-06-26T09:04:27;13.93;;;7.20;;
71038;SDS011;58692;43.212;27.908;2023-06-26T09:06:53;14.57;;;6.87;;
71038;SDS011;58692;43.212;27.908;2023-06-26T09:09:19;13.68;;;6.53;;
71038;SDS011;58692;43.212;27.908;2023-06-26T09:11:45;10.30;;;5.85;;
71038;SDS011;58692;43.212;27.908;2023-06-26T09:14:14;12.20;;;6.03;;
71038;SDS011;58692;43.212;27.908;2023-06-26T09:16:40;11.23;;;5.75;;
71038;SDS011;58692;43.212;27.908;2023-06-26T09:19:09;10.73;;;6.45;;
71038;SDS011;58692;43.212;27.908;2023-06-26T09:21:37;10.30;;;5.87;;
71038;SDS011;58692;43.212;27.908;2023-06-26T09:24:05;11.13;;;6.00;;
71038;SDS011;58692;43.212;27.908;2023-06-26T09:26:32;14.32;;;6.95;;
71038;SDS011;58692;43.212;27.908;2023-06-26T09:28:58;14.38;;;5.93;;
71038;SDS011;58692;43.212;27.908;2023-06-26T09:31:29;12.15;;;6.55;;
71038;SDS011;58692;43.212;27.908;2023-06-26T09:33:58;12.43;;;6.60;;
71038;SDS011;58692;43.212;27.908;2023-06-26T09:36:26;12.52;;;6.03;;
71038;SDS011;58692;43.212;27.908;2023-06-26T09:38:53;10.65;;;5.90;;
71038;SDS011;58692;43.212;27.908;2023-06-26T09:41:20;12.10;;;5.90;;
71038;SDS011;58692;43.212;27.908;2023-06-26T09:43:46;11.73;;;5.80;;
71038;SDS011;58692;43.212;27.908;2023-06-26T09:46:16;10.73;;;6.30;;
71038;SDS011;58692;43.212;27.908;2023-06-26T09:48:43;12.27;;;6.30;;
71038;SDS011;58692;43.212;27.908;2023-06-26T09:51:09;11.18;;;6.45;;
71038;SDS011;58692;43.212;27.908;2023-06-26T09:53:35;14.35;;;6.13;;
71038;SDS011;58692;43.212;27.908;2023-06-26T09:56:06;10.00;;;6.47;;
71038;SDS011;58692;43.212;27.908;2023-06-26T09:58:34;11.70;;;6.40;;
71038;SDS011;58692;43.212;27.908;2023-06-26T10:01:00;10.38;;;5.80;;
71038;SDS011;58692;43.212;27.908;2023-06-26T10:03:27;9.35;;;5.53;;
71038;SDS011;58692;43.212;27.908;2023-06-26T10:05:56;13.82;;;5.63;;
71038;SDS011;58692;43.212;27.908;2023-06-26T10:08:23;14.23;;;6.38;;
71038;SDS011;58692;43.212;27.908;2023-06-26T10:10:49;14.50;;;6.00;;
71038;SDS011;58692;43.212;27.908;2023-06-26T10:13:15;11.75;;;5.72;;
71038;SDS011;58692;43.212;27.908;2023-06-26T10:15:46;11.87;;;5.77;;
71038;SDS011;58692;43.212;27.908;2023-06-26T10:18:15;9.48;;;5.10;;
71038;SDS011;58692;43.212;27.908;2023-06-26T10:20:43;8.65;;;5.15;;
71038;SDS011;58692;43.212;27.908;2023-06-26T10:23:13;8.90;;;5.00;;
71038;SDS011;58692;43.212;27.908;2023-06-26T10:25:40;9.27;;;5.15;;
71038;SDS011;58692;43.212;27.908;2023-06-26T10:28:09;11.03;;;4.70;;
71038;SDS011;58692;43.212;27.908;2023-06-26T10:30:37;10.65;;;5.47;;
71038;SDS011;58692;43.212;27.908;2023-06-26T10:33:04;12.30;;;5.00;;
71038;SDS011;58692;43.212;27.908;2023-06-26T10:35:32;9.43;;;5.28;;
71038;SDS011;58692;43.212;27.908;2023-06-26T10:38:00;9.70;;;5.50;;
71038;SDS011;58692;43.212;27.908;2023-06-26T10:40:33;19.87;;;6.13;;
71038;SDS011;58692;43.212;27.908;2023-06-26T10:43:06;11.85;;;5.30;;
71038;SDS011;58692;43.212;27.908;2023-06-26T10:45:34;15.65;;;5.70;;
71038;SDS011;58692;43.212;27.908;2023-06-26T10:48:02;10.05;;;5.20;;
71038;SDS011;58692;43.212;27.908;2023-06-26T10:50:30;11.32;;;5.28;;
71038;SDS011;58692;43.212;27.908;2023-06-26T11:01:13;9.00;;;4.40;;
71038;SDS011;58692;43.212;27.908;2023-06-26T11:03:44;10.52;;;4.35;;
71038;SDS011;58692;43.212;27.908;2023-06-26T11:06:19;8.67;;;3.73;;
71038;SDS011;58692;43.212;27.908;2023-06-26T11:08:54;9.30;;;3.85;;
71038;SDS011;58692;43.212;27.908;2023-06-26T11:14:24;9.10;;;3.97;;
71038;SDS011;58692;43.212;27.908;2023-06-26T11:16:51;6.88;;;3.83;;
71038;SDS011;58692;43.212;27.908;2023-06-26T11:19:20;9.73;;;3.93;;
71038;SDS011;58692;43.212;27.908;2023-06-26T11:21:49;9.13;;;3.97;;
71038;SDS011;58692;43.212;27.908;2023-06-26T11:24:15;10.27;;;3.78;;
71038;SDS011;58692;43.212;27.908;2023-06-26T11:26:41;8.73;;;3.97;;
71038;SDS011;58692;43.212;27.908;2023-06-26T11:29:09;8.40;;;3.78;;
71038;SDS011;58692;43.212;27.908;2023-06-26T11:31:36;7.70;;;3.80;;
71038;SDS011;58692;43.212;27.908;2023-06-26T11:34:03;8.32;;;3.92;;
71038;SDS011;58692;43.212;27.908;2023-06-26T11:36:32;7.63;;;4.05;;
71038;SDS011;58692;43.212;27.908;2023-06-26T11:39:02;7.40;;;4.00;;
71038;SDS011;58692;43.212;27.908;2023-06-26T11:41:31;9.57;;;4.07;;
71038;SDS011;58692;43.212;27.908;2023-06-26T11:44:06;9.00;;;4.40;;
71038;SDS011;58692;43.212;27.908;2023-06-26T11:46:34;8.55;;;4.07;;
71038;SDS011;58692;43.212;27.908;2023-06-26T11:49:02;9.07;;;3.65;;
71038;SDS011;58692;43.212;27.908;2023-06-26T11:51:29;8.77;;;3.65;;
71038;SDS011;58692;43.212;27.908;2023-06-26T11:53:55;10.20;;;3.80;;
71038;SDS011;58692;43.212;27.908;2023-06-26T11:56:20;7.93;;;3.90;;
71038;SDS011;58692;43.212;27.908;2023-06-26T11:58:55;9.57;;;4.10;;
71038;SDS011;58692;43.212;27.908;2023-06-26T12:01:22;9.83;;;4.13;;
71038;SDS011;58692;43.212;27.908;2023-06-26T12:03:49;15.52;;;6.90;;
71038;SDS011;58692;43.212;27.908;2023-06-26T12:06:15;12.55;;;7.70;;
71038;SDS011;58692;43.212;27.908;2023-06-26T12:08:41;12.63;;;8.25;;
71038;SDS011;58692;43.212;27.908;2023-06-26T12:11:07;16.52;;;7.30;;
71038;SDS011;58692;43.212;27.908;2023-06-26T12:13:33;14.60;;;7.87;;
71038;SDS011;58692;43.212;27.908;2023-06-26T12:15:59;13.55;;;7.53;;
71038;SDS011;58692;43.212;27.908;2023-06-26T12:18:25;13.90;;;8.07;;
71038;SDS011;58692;43.212;27.908;2023-06-26T12:20:51;15.38;;;8.18;;
71038;SDS011;58692;43.212;27.908;2023-06-26T12:23:17;11.43;;;7.88;;
71038;SDS011;58692;43.212;27.908;2023-06-26T12:25:43;14.43;;;8.07;;
71038;SDS011;58692;43.212;27.908;2023-06-26T12:28:16;12.55;;;7.50;;
71038;SDS011;58692;43.212;27.908;2023-06-26T12:30:46;11.25;;;7.10;;
71038;SDS011;58692;43.212;27.908;2023-06-26T12:33:14;13.55;;;7.10;;
71038;SDS011;58692;43.212;27.908;2023-06-26T12:35:41;15.37;;;8.20;;
71038;SDS011;58692;43.212;27.908;2023-06-26T12:38:08;13.07;;;7.75;;
71038;SDS011;58692;43.212;27.908;2023-06-26T12:40:36;12.45;;;7.65;;
71038;SDS011;58692;43.212;27.908;2023-06-26T12:43:11;11.73;;;7.65;;
71038;SDS011;58692;43.212;27.908;2023-06-26T12:45:47;12.23;;;7.30;;
71038;SDS011;58692;43.212;27.908;2023-06-26T12:48:12;16.70;;;7.73;;
71038;SDS011;58692;43.212;27.908;2023-06-26T12:50:44;13.73;;;7.90;;
71038;SDS011;58692;43.212;27.908;2023-06-26T12:53:10;14.03;;;7.40;;
71038;SDS011;58692;43.212;27.908;2023-06-26T12:55:36;12.20;;;7.55;;
71038;SDS011;58692;43.212;27.908;2023-06-26T12:58:02;14.63;;;7.90;;
71038;SDS011;58692;43.212;27.908;2023-06-26T13:00:27;13.45;;;7.80;;
71038;SDS011;58692;43.212;27.908;2023-06-26T13:02:53;12.90;;;7.53;;
71038;SDS011;58692;43.212;27.908;2023-06-26T13:05:18;13.00;;;8.23;;
71038;SDS011;58692;43.212;27.908;2023-06-26T13:07:44;12.77;;;7.72;;
71038;SDS011;58692;43.212;27.908;2023-06-26T13:10:09;13.70;;;7.70;;
71038;SDS011;58692;43.212;27.908;2023-06-26T13:12:35;13.32;;;8.07;;
71038;SDS011;58692;43.212;27.908;2023-06-26T13:15:01;12.53;;;7.83;;
71038;SDS011;58692;43.212;27.908;2023-06-26T13:17:26;13.93;;;8.27;;
71038;SDS011;58692;43.212;27.908;2023-06-26T13:19:51;12.13;;;7.33;;
71038;SDS011;58692;43.212;27.908;2023-06-26T13:22:17;12.33;;;7.93;;
71038;SDS011;58692;43.212;27.908;2023-06-26T13:24:42;15.57;;;8.70;;
71038;SDS011;58692;43.212;27.908;2023-06-26T13:27:08;13.27;;;7.32;;
71038;SDS011;58692;43.212;27.908;2023-06-26T13:29:33;13.70;;;7.40;;
71038;SDS011;58692;43.212;27.908;2023-06-26T13:31:59;11.70;;;7.43;;
71038;SDS011;58692;43.212;27.908;2023-06-26T13:34:24;12.75;;;7.40;;
71038;SDS011;58692;43.212;27.908;2023-06-26T13:36:52;11.93;;;6.70;;
71038;SDS011;58692;43.212;27.908;2023-06-26T13:39:18;11.55;;;7.15;;
71038;SDS011;58692;43.212;27.908;2023-06-26T13:41:44;13.43;;;8.00;;
71038;SDS011;58692;43.212;27.908;2023-06-26T13:44:10;11.13;;;7.38;;
71038;SDS011;58692;43.212;27.908;2023-06-26T13:46:35;13.40;;;6.73;;
71038;SDS011;58692;43.212;27.908;2023-06-26T13:49:01;13.23;;;7.33;;
71038;SDS011;58692;43.212;27.908;2023-06-26T13:51:26;11.93;;;6.80;;
71038;SDS011;58692;43.212;27.908;2023-06-26T13:53:51;11.30;;;6.90;;
71038;SDS011;58692;43.212;27.908;2023-06-26T13:56:17;11.85;;;7.03;;
71038;SDS011;58692;43.212;27.908;2023-06-26T13:58:42;11.50;;;6.50;;
71038;SDS011;58692;43.212;27.908;2023-06-26T14:01:09;10.20;;;6.30;;
71038;SDS011;58692;43.212;27.908;2023-06-26T14:03:34;10.60;;;6.50;;
71038;SDS011;58692;43.212;27.908;2023-06-26T14:06:00;10.70;;;6.77;;
71038;SDS011;58692;43.212;27.908;2023-06-26T14:08:25;13.80;;;6.80;;
71038;SDS011;58692;43.212;27.908;2023-06-26T14:10:51;14.10;;;6.77;;
71038;SDS011;58692;43.212;27.908;2023-06-26T14:13:16;9.60;;;6.27;;
71038;SDS011;58692;43.212;27.908;2023-06-26T14:15:42;11.57;;;7.03;;
71038;SDS011;58692;43.212;27.908;2023-06-26T14:18:07;13.33;;;6.90;;
71038;SDS011;58692;43.212;27.908;2023-06-26T14:20:33;10.75;;;6.50;;
71038;SDS011;58692;43.212;27.908;2023-06-26T14:23:00;10.35;;;6.55;;
71038;SDS011;58692;43.212;27.908;2023-06-26T14:25:27;11.27;;;6.43;;
71038;SDS011;58692;43.212;27.908;2023-06-26T14:27:53;10.50;;;6.40;;
71038;SDS011;58692;43.212;27.908;2023-06-26T14:30:20;13.55;;;6.55;;
71038;SDS011;58692;43.212;27.908;2023-06-26T14:32:46;10.93;;;6.32;;
71038;SDS011;58692;43.212;27.908;2023-06-26T14:35:11;11.30;;;6.33;;
71038;SDS011;58692;43.212;27.908;2023-06-26T14:37:37;10.53;;;6.50;;
71038;SDS011;58692;43.212;27.908;2023-06-26T14:40:05;13.00;;;6.93;;